Lufkin, TX

2:56 AM CDT on May 25, 2017 (GMT -0500)
Inwood Terrace | | Change Station
Active Advisory: Flood Warning

Elev 280 ft 31.32 °N, 94.71 °W | Updated 4 seconds ago

Clear
Clear
56.1 °F
Feels Like 56.1 °F
N
0.0
Wind Variable Wind from SW
Gusts 0.0 mph

Today
High -- | Low -- °F
--% Chance of Precip.
Yesterday
High -- | Low -- °F
Precip. -- in
Pressure 29.73 in
Visibility 10.0 miles
Clouds Clear
Dew Point 55 °F
Humidity 96%
Rainfall 0.00 in
Snow Depth Not available.
6:17 AM 8:14 PM
Waning Crescent, 0% visible
METAR KLFK 250753Z AUTO 00000KT 10SM CLR 13/12 A2974 RMK AO2 SLP068 T01280117
Pressure 29.73 in
Visibility 10.0 miles
Clouds Clear
Dew Point 55 °F
Humidity 96%
Rainfall 0.00 in
Snow Depth Not available.
6:17 AM 8:14 PM
Waning Crescent, 0% visible
METAR KLFK 250753Z AUTO 00000KT 10SM CLR 13/12 A2974 RMK AO2 SLP068 T01280117

Get Your Daily Forecast Email!

Thanks for signing up!

Be on the lookout for a verification email in your inbox.

You'll start receiving severe weather alerts in your inbox..

×

10-Day Weather Forecast

Almanac

Astronomy

May. 25, 2017 Rise Set
Actual Time
Civil Twilight
Nautical Twilight
Astronomical Twilight
Moon
Length of Visible Light
Length of Day
Tomorrow will be .
, % of the Moon is Illuminated

Today's Extremes

State Highs State Lows

Community

WunderPhotos

Category 6

Welcome to Category 6. This is the collective home for Weather Underground's featured writeups by Dr. Jeff Masters (right), Bob Henson (left), Chris Burt, and other regular contributors.

Nearby

Air Quality

  Air Quality AQ Index Pollutant
Not available.

Snow Depth

Station Depth Elevation

Earthquake Activity

City Distance Mag. Time & Date
Minimum magnitude displayed is 2.5.

Coastal Water Temperatures

Place Temperature

Stations

Nearby Weather Stations

Station Location Temp. Windchill Dew Point Humidity Wind Precip. Elev Updated Type
                   

Watches & Warnings

Flood Warning
Issued: 11:08 AM CDT May. 24, 2017 – National Weather Service

The Flood Warning continues for
the Angelina river near Lufkin.
* Until further notice... or until the warning is cancelled.
* Flood stage is 10.0 feet.
* Impact... at 11.0 feet... minor lowland flooding.


Lat... Lon 3144 9462 3145 9474 3148 9482 3150 9482 3146 9466




1108 am CDT Wed may 24 2017

... The Flood Warning extended until further notice... the Flood
Warning continues for
the Neches River near Diboll.
* From this afternoon until further notice... or until the warning is
cancelled.
* At 10:15 am Wednesday the stage was 11.4 feet.
* Minor flooding is forecast.
* Flood stage is 12.0 feet.
* Forecast... rise above flood stage by late this afternoon and
continue to rise to near 13.0 feet by tomorrow evening.
* Impact... at 12.0 feet... minor lowland flooding occurs. Expect
flooded boat ramps and trails.


Lat... Lon 3138 9492 3107 9455 3103 9459 3111 9485 3136 9500